createdAt,value
2022-09-04T00:02:26.989Z,22.30
2022-09-04T00:05:01.581Z,22.30
2022-09-04T00:07:51.916Z,22.30
2022-09-04T00:11:04.389Z,22.30
2022-09-04T00:13:39.321Z,22.30
2022-09-04T00:16:19.979Z,22.20
2022-09-04T00:18:58.072Z,22.20
2022-09-04T00:21:37.182Z,22.20
2022-09-04T00:24:10.469Z,22.20
2022-09-04T00:26:49.027Z,22.20
2022-09-04T00:29:36.293Z,22.20
2022-09-04T00:32:31.388Z,22.20
2022-09-04T00:35:18.443Z,22.20
2022-09-04T00:37:48.169Z,22.20
2022-09-04T00:40:38.368Z,22.20
2022-09-04T00:43:37.499Z,22.10
2022-09-04T00:46:31.142Z,22.20
2022-09-04T00:49:33.338Z,22.20
2022-09-04T00:52:02.760Z,22.10
2022-09-04T00:54:52.443Z,22.10
2022-09-04T00:57:37.806Z,22.10
2022-09-04T01:00:10.967Z,22.10
2022-09-04T01:03:02.159Z,22.10
2022-09-04T01:05:58.424Z,22.10
2022-09-04T01:08:40.305Z,22.10
2022-09-04T01:11:15.176Z,22.10
2022-09-04T01:14:09.946Z,22.10
2022-09-04T01:17:14.465Z,22.10
2022-09-04T01:20:08.359Z,22.10
2022-09-04T01:22:51.501Z,22.10
2022-09-04T01:25:48.671Z,22.00
2022-09-04T01:28:35.849Z,22.00
2022-09-04T01:31:40.053Z,22.00
2022-09-04T01:34:43.829Z,22.00
2022-09-04T01:37:22.675Z,22.00
2022-09-04T01:40:03.009Z,22.00
2022-09-04T01:42:51.655Z,22.00
2022-09-04T01:45:32.259Z,22.00
2022-09-04T01:48:07.891Z,21.90
2022-09-04T01:50:36.946Z,21.90
2022-09-04T01:53:26.431Z,21.90
2022-09-04T01:56:09.583Z,21.90
2022-09-04T01:58:54.214Z,21.90
2022-09-04T02:01:32.839Z,21.90
2022-09-04T02:04:37.533Z,21.80
2022-09-04T02:07:36.112Z,21.80
2022-09-04T02:10:05.880Z,21.90
2022-09-04T02:13:00.777Z,21.80
2022-09-04T02:15:43.006Z,21.80
2022-09-04T02:18:24.982Z,21.80
2022-09-04T02:21:10.461Z,21.80
2022-09-04T02:23:45.493Z,21.80
2022-09-04T02:26:26.955Z,21.80
2022-09-04T02:28:59.954Z,21.80
2022-09-04T02:31:43.959Z,21.70
2022-09-04T02:34:48.388Z,21.70
2022-09-04T02:37:31.501Z,21.70
2022-09-04T02:40:18.967Z,21.70
2022-09-04T02:43:07.656Z,21.70
2022-09-04T02:45:37.023Z,21.70
2022-09-04T02:48:15.849Z,21.70
2022-09-04T02:51:20.677Z,21.70
2022-09-04T02:54:08.214Z,21.60
2022-09-04T02:56:52.061Z,21.70
2022-09-04T02:59:56.124Z,21.60
2022-09-04T03:02:54.410Z,21.60
2022-09-04T03:05:33.280Z,21.60
2022-09-04T03:08:11.118Z,21.60
2022-09-04T03:10:44.275Z,21.60
2022-09-04T03:13:21.995Z,21.60
2022-09-04T03:15:58.392Z,21.60
2022-09-04T03:18:55.679Z,21.60
2022-09-04T03:21:40.741Z,21.60
2022-09-04T03:24:28.433Z,21.60
2022-09-04T03:27:00.572Z,21.50
2022-09-04T03:30:01.221Z,21.50
2022-09-04T03:32:49.437Z,21.50
2022-09-04T03:35:18.971Z,21.50
2022-09-04T03:38:20.281Z,21.50
2022-09-04T03:40:57.459Z,21.50
2022-09-04T03:43:27.087Z,21.50
2022-09-04T03:46:15.815Z,21.40
2022-09-04T03:48:48.941Z,21.40
2022-09-04T03:51:28.677Z,21.50
2022-09-04T03:53:56.215Z,21.40
2022-09-04T03:56:28.992Z,21.40
2022-09-04T03:59:11.504Z,21.40
2022-09-04T04:02:01.196Z,21.40
2022-09-04T04:04:45.348Z,21.40
2022-09-04T04:07:37.455Z,21.40
2022-09-04T04:10:15.529Z,21.40
2022-09-04T04:13:02.218Z,21.40
2022-09-04T04:15:36.924Z,21.40
2022-09-04T04:18:27.266Z,21.40
2022-09-04T04:21:07.905Z,21.40
2022-09-04T04:23:40.909Z,21.40
2022-09-04T04:26:42.561Z,21.40
2022-09-04T04:29:36.961Z,21.30
2022-09-04T04:32:33.442Z,20.10
2022-09-04T04:35:12.548Z,19.10
2022-09-04T04:38:00.791Z,18.60
2022-09-04T04:40:41.281Z,18.50
2022-09-04T04:43:41.066Z,18.40
2022-09-04T04:46:12.349Z,18.30
2022-09-04T04:49:23.399Z,18.30
2022-09-04T04:52:22.894Z,18.30
2022-09-04T04:55:17.990Z,18.30
2022-09-04T04:58:35.301Z,18.30
2022-09-04T05:01:20.914Z,18.30
2022-09-04T05:04:05.689Z,18.20
2022-09-04T05:06:45.149Z,18.10
2022-09-04T05:09:48.652Z,18.20
2022-09-04T05:12:18.279Z,18.30
2022-09-04T05:14:55.335Z,19.00
2022-09-04T05:17:45.645Z,19.40
2022-09-04T05:20:28.675Z,19.80
2022-09-04T05:23:29.015Z,19.90
2022-09-04T05:26:02.637Z,20.20
2022-09-04T05:28:33.348Z,20.20
2022-09-04T05:31:10.187Z,20.30
2022-09-04T05:34:09.504Z,20.40
2022-09-04T05:36:55.427Z,20.40
2022-09-04T05:39:36.005Z,20.40
2022-09-04T05:42:30.221Z,20.50
2022-09-04T05:45:05.569Z,20.50
2022-09-04T05:47:53.404Z,20.50
2022-09-04T05:50:41.978Z,20.60
2022-09-04T05:53:11.499Z,20.60
2022-09-04T05:55:53.365Z,20.60
2022-09-04T05:58:22.707Z,20.70
2022-09-04T06:01:14.276Z,20.70
2022-09-04T06:03:55.348Z,20.70
2022-09-04T06:06:51.611Z,20.70
2022-09-04T06:09:51.121Z,20.70
2022-09-04T06:12:44.368Z,20.70
2022-09-04T06:15:33.565Z,20.80
2022-09-04T06:18:21.727Z,20.80
2022-09-04T06:21:11.860Z,20.80
2022-09-04T06:24:20.463Z,20.90
2022-09-04T06:27:14.515Z,20.90
2022-09-04T06:30:02.635Z,20.90
2022-09-04T06:33:23.531Z,20.90
2022-09-04T06:36:12.491Z,20.90
2022-09-04T06:38:55.641Z,21.00
2022-09-04T06:42:13.688Z,21.00
2022-09-04T06:45:10.764Z,21.00
2022-09-04T06:47:59.058Z,21.00
2022-09-04T06:50:31.230Z,21.10
2022-09-04T06:53:04.196Z,21.10
2022-09-04T06:55:47.372Z,21.10
2022-09-04T06:59:01.447Z,21.10
2022-09-04T07:02:01.101Z,21.10
2022-09-04T07:05:13.000Z,21.20
2022-09-04T07:07:50.006Z,21.00
2022-09-04T07:10:22.351Z,20.60
2022-09-04T07:13:01.129Z,20.40
2022-09-04T07:15:59.200Z,20.40
2022-09-04T07:18:54.314Z,20.40
2022-09-04T07:21:58.837Z,20.50
2022-09-04T07:24:43.136Z,20.70
2022-09-04T07:27:37.621Z,20.70
2022-09-04T07:30:06.105Z,20.70
2022-09-04T07:32:43.429Z,20.80
2022-09-04T07:35:39.054Z,20.90
2022-09-04T07:38:18.921Z,20.90
2022-09-04T07:40:51.778Z,20.90
2022-09-04T07:43:42.514Z,21.00
2022-09-04T07:46:36.730Z,21.10
2022-09-04T07:49:23.785Z,21.20
2022-09-04T07:52:11.083Z,21.30
2022-09-04T07:54:58.828Z,21.40
2022-09-04T07:57:44.042Z,21.40
2022-09-04T08:00:18.060Z,21.50
2022-09-04T08:03:25.733Z,21.60
2022-09-04T08:06:11.594Z,21.70
2022-09-04T08:09:02.969Z,21.80
2022-09-04T08:11:50.763Z,21.90
2022-09-04T08:14:37.572Z,22.00
2022-09-04T08:17:25.778Z,22.00
2022-09-04T08:20:09.433Z,22.10
2022-09-04T08:22:47.772Z,22.10
2022-09-04T08:25:27.705Z,22.20
2022-09-04T08:28:17.346Z,22.30
2022-09-04T08:31:05.209Z,22.40
2022-09-04T08:34:03.188Z,22.40
2022-09-04T08:36:54.179Z,22.30
2022-09-04T08:39:54.174Z,22.40
2022-09-04T08:43:15.820Z,22.40
2022-09-04T08:46:03.309Z,22.30
2022-09-04T08:48:42.012Z,22.20
2022-09-04T08:51:28.485Z,22.20
2022-09-04T08:54:20.793Z,22.20
2022-09-04T08:56:56.512Z,22.20
2022-09-04T08:59:50.842Z,22.20
2022-09-04T09:02:49.819Z,22.20
2022-09-04T09:05:42.741Z,22.20
2022-09-04T09:08:34.169Z,22.20
2022-09-04T09:11:21.499Z,22.20
2022-09-04T09:14:29.039Z,22.20
2022-09-04T09:17:03.003Z,22.20
2022-09-04T09:20:18.075Z,22.30
2022-09-04T09:23:18.074Z,22.30
2022-09-04T09:26:12.944Z,22.30
2022-09-04T09:29:14.121Z,22.30
2022-09-04T09:31:52.756Z,22.30
2022-09-04T09:34:50.925Z,22.30
2022-09-04T09:37:47.931Z,22.40
2022-09-04T09:41:00.372Z,22.50
2022-09-04T09:43:50.806Z,22.70
2022-09-04T09:46:36.595Z,22.70
2022-09-04T09:49:20.990Z,22.70
2022-09-04T09:52:03.834Z,22.70
2022-09-04T09:54:49.074Z,22.70
2022-09-04T09:57:33.450Z,22.80
2022-09-04T10:00:13.747Z,22.80
2022-09-04T10:02:46.009Z,23.00
2022-09-04T10:05:21.310Z,22.90
2022-09-04T10:08:06.615Z,22.90
2022-09-04T10:11:08.443Z,22.80
2022-09-04T10:14:06.232Z,22.80
2022-09-04T10:16:58.158Z,22.90
2022-09-04T10:19:47.680Z,22.90
2022-09-04T10:22:39.090Z,23.00
2022-09-04T10:25:23.975Z,23.20
2022-09-04T10:27:59.733Z,23.10
2022-09-04T10:30:45.767Z,23.10
2022-09-04T10:33:30.054Z,23.10
2022-09-04T10:36:16.158Z,23.10
2022-09-04T10:39:40.660Z,23.10
2022-09-04T10:42:16.308Z,23.20
2022-09-04T10:45:03.911Z,23.30
2022-09-04T10:47:44.868Z,23.30
2022-09-04T10:50:17.031Z,23.20
2022-09-04T10:52:57.730Z,23.20
2022-09-04T10:55:43.824Z,23.10
2022-09-04T10:58:39.579Z,23.10
2022-09-04T11:01:12.386Z,23.20
2022-09-04T11:04:16.309Z,23.20
2022-09-04T11:07:28.620Z,23.30
2022-09-04T11:10:12.198Z,23.30
2022-09-04T11:13:03.393Z,23.30
2022-09-04T11:15:29.939Z,23.30
2022-09-04T11:18:25.472Z,23.20
2022-09-04T11:21:24.924Z,23.20
2022-09-04T11:24:28.850Z,23.20
2022-09-04T11:27:23.379Z,23.20
2022-09-04T11:30:10.048Z,23.20
2022-09-04T11:33:36.410Z,23.20
2022-09-04T11:36:40.252Z,23.20
2022-09-04T11:39:18.247Z,23.10
2022-09-04T11:41:52.292Z,23.10
2022-09-04T11:44:25.159Z,23.10
2022-09-04T11:47:16.726Z,23.10
2022-09-04T11:49:52.466Z,23.10
2022-09-04T11:52:30.097Z,23.20
2022-09-04T11:55:28.897Z,23.20
2022-09-04T12:00:22.791Z,23.20
2022-09-04T12:03:13.650Z,23.20
2022-09-04T12:06:05.651Z,23.10
2022-09-04T12:08:38.065Z,23.70
2022-09-04T12:11:41.997Z,23.20
2022-09-04T12:14:43.893Z,23.10
2022-09-04T12:17:28.482Z,23.10
2022-09-04T12:20:07.751Z,23.20
2022-09-04T12:23:13.279Z,23.20
2022-09-04T12:26:01.812Z,23.20
2022-09-04T12:29:10.947Z,23.20
2022-09-04T12:31:44.064Z,23.20
2022-09-04T12:34:34.955Z,23.20
2022-09-04T12:37:19.823Z,23.20
2022-09-04T12:40:04.109Z,23.20
2022-09-04T12:42:58.414Z,23.30
2022-09-04T12:45:40.678Z,23.20
2022-09-04T12:48:13.424Z,23.20
2022-09-04T12:50:55.824Z,23.20
2022-09-04T12:53:52.765Z,23.10
2022-09-04T12:56:40.828Z,23.20
2022-09-04T12:59:16.182Z,23.10
2022-09-04T13:02:23.852Z,23.10
2022-09-04T13:05:25.788Z,23.10
2022-09-04T13:07:59.455Z,23.10
2022-09-04T13:10:55.445Z,23.20
2022-09-04T13:13:46.650Z,23.20
2022-09-04T13:16:13.227Z,23.20
2022-09-04T13:19:00.112Z,23.20
2022-09-04T13:21:35.344Z,23.10
2022-09-04T13:24:19.481Z,23.20
2022-09-04T13:27:04.557Z,23.20
2022-09-04T13:29:51.403Z,23.20
2022-09-04T13:32:39.708Z,23.20
2022-09-04T13:35:41.286Z,23.20
2022-09-04T13:38:46.393Z,23.10
2022-09-04T13:41:33.061Z,23.20
2022-09-04T13:44:23.749Z,23.20
2022-09-04T13:47:06.967Z,23.20
2022-09-04T13:49:45.724Z,23.20
2022-09-04T13:52:19.266Z,23.20
2022-09-04T13:54:54.831Z,23.20
2022-09-04T13:57:35.342Z,23.20
2022-09-04T14:00:05.671Z,23.20
2022-09-04T14:02:35.486Z,23.30
2022-09-04T14:05:08.169Z,23.30
2022-09-04T14:07:41.540Z,23.30
2022-09-04T14:10:32.604Z,23.30
2022-09-04T14:13:23.223Z,23.30
2022-09-04T14:16:01.728Z,23.30
2022-09-04T14:19:22.769Z,23.30
2022-09-04T14:21:55.217Z,23.30
2022-09-04T14:24:34.833Z,23.20
2022-09-04T14:27:23.177Z,23.30
2022-09-04T14:30:13.074Z,23.30
2022-09-04T14:32:49.323Z,23.30
2022-09-04T14:35:46.787Z,23.30
2022-09-04T14:38:44.517Z,23.30
2022-09-04T14:41:42.887Z,23.30
2022-09-04T14:44:30.593Z,23.30
2022-09-04T14:47:25.987Z,23.30
2022-09-04T14:50:01.120Z,23.30
2022-09-04T14:52:36.618Z,23.30
2022-09-04T14:55:06.928Z,23.20
2022-09-04T14:57:36.293Z,23.30
2022-09-04T15:00:17.277Z,23.30
2022-09-04T15:02:47.568Z,23.30
2022-09-04T15:05:30.775Z,23.30
2022-09-04T15:08:07.488Z,23.30
2022-09-04T15:10:47.437Z,23.30
2022-09-04T15:13:29.109Z,23.20
2022-09-04T15:16:11.119Z,23.30
2022-09-04T15:18:53.527Z,23.30
2022-09-04T15:22:05.449Z,23.30
2022-09-04T15:24:46.613Z,23.30
2022-09-04T15:27:51.249Z,23.30
2022-09-04T15:30:23.816Z,23.40
2022-09-04T15:33:08.909Z,23.40
2022-09-04T15:35:36.311Z,23.40
2022-09-04T15:38:25.278Z,23.30
2022-09-04T15:41:15.491Z,23.40
2022-09-04T15:43:57.774Z,23.30
2022-09-04T15:46:55.326Z,23.30
2022-09-04T15:49:43.859Z,23.30
2022-09-04T15:52:28.624Z,23.30
2022-09-04T15:54:55.177Z,23.30
2022-09-04T15:57:29.501Z,23.30
2022-09-04T16:00:07.957Z,23.30
2022-09-04T16:02:50.181Z,23.30
2022-09-04T16:05:25.058Z,23.30
2022-09-04T16:08:31.720Z,23.30
2022-09-04T16:11:11.563Z,23.30
2022-09-04T16:13:51.127Z,23.30
2022-09-04T16:16:39.349Z,23.30
2022-09-04T16:19:15.078Z,23.30
2022-09-04T16:22:11.384Z,23.30
2022-09-04T16:24:44.256Z,23.30
2022-09-04T16:27:17.436Z,23.30
2022-09-04T16:30:04.887Z,23.30
2022-09-04T16:32:34.055Z,23.30
2022-09-04T16:35:05.605Z,23.30
2022-09-04T16:37:37.345Z,23.30
2022-09-04T16:40:25.388Z,23.30
2022-09-04T16:43:33.926Z,23.30
2022-09-04T16:46:08.152Z,23.40
2022-09-04T16:48:57.771Z,23.40
2022-09-04T16:51:40.086Z,23.40
2022-09-04T16:54:29.000Z,23.30
2022-09-04T16:57:13.694Z,23.40
2022-09-04T17:00:14.123Z,23.40
2022-09-04T17:03:01.396Z,23.50
2022-09-04T17:05:45.639Z,23.40
2022-09-04T17:08:27.891Z,23.40
2022-09-04T17:11:39.495Z,23.50
2022-09-04T17:14:19.801Z,23.50
2022-09-04T17:16:57.340Z,23.50
2022-09-04T17:19:25.517Z,23.50
2022-09-04T17:27:39.176Z,23.50
2022-09-04T17:29:07.715Z,23.40
2022-09-04T17:29:15.426Z,23.40
2022-09-04T17:31:25.797Z,23.50
2022-09-04T17:39:45.959Z,23.40
2022-09-04T17:40:40.031Z,23.50
2022-09-04T17:40:55.964Z,23.50
2022-09-04T17:43:22.141Z,23.40
2022-09-04T17:46:02.537Z,23.40
2022-09-04T17:48:46.925Z,23.40
2022-09-04T17:51:24.701Z,23.40
2022-09-04T17:53:59.882Z,23.30
2022-09-04T17:56:44.352Z,23.30
2022-09-04T18:00:18.960Z,23.30
2022-09-04T18:03:12.372Z,23.20
2022-09-04T18:08:52.574Z,23.20
2022-09-04T18:11:33.909Z,23.30
2022-09-04T18:14:23.000Z,23.20
2022-09-04T18:17:11.812Z,23.20
2022-09-04T18:20:26.105Z,23.20
2022-09-04T18:23:19.479Z,23.20
2022-09-04T18:25:59.161Z,23.30
2022-09-04T18:28:47.364Z,23.30
2022-09-04T18:37:13.097Z,23.30
2022-09-04T18:37:26.905Z,23.30
2022-09-04T18:41:00.775Z,23.20
2022-09-04T18:50:27.930Z,23.20
2022-09-04T18:50:28.382Z,23.10
2022-09-04T18:50:48.705Z,23.20
2022-09-04T18:52:34.452Z,23.10
2022-09-04T18:55:13.439Z,23.10
2022-09-04T18:57:53.297Z,23.10
2022-09-04T19:00:34.034Z,23.00
2022-09-04T19:03:15.795Z,23.00
2022-09-04T19:05:46.652Z,22.90
2022-09-04T19:08:37.360Z,23.00
2022-09-04T19:11:20.643Z,22.90
2022-09-04T19:14:00.737Z,22.80
2022-09-04T19:16:44.498Z,22.80
2022-09-04T19:19:28.672Z,22.80
2022-09-04T19:22:18.505Z,22.70
2022-09-04T19:24:56.839Z,22.60
2022-09-04T19:27:46.836Z,22.60
2022-09-04T19:30:24.952Z,22.50
2022-09-04T19:33:19.381Z,22.60
2022-09-04T19:39:15.481Z,22.60
2022-09-04T19:46:06.659Z,22.50
2022-09-04T19:46:13.320Z,22.50
2022-09-04T19:47:29.436Z,22.40
2022-09-04T19:53:24.134Z,22.30
2022-09-04T19:53:37.787Z,22.20
2022-09-04T19:56:27.571Z,22.20
2022-09-04T19:59:05.551Z,22.10
2022-09-04T20:01:49.520Z,22.10
2022-09-04T20:04:31.920Z,22.10
2022-09-04T20:07:03.135Z,22.10
2022-09-04T20:09:49.612Z,22.00
2022-09-04T20:12:37.148Z,21.90
2022-09-04T20:15:17.559Z,22.00
2022-09-04T20:18:08.449Z,22.00
2022-09-04T20:20:56.116Z,22.00
2022-09-04T20:23:47.629Z,21.90
2022-09-04T20:26:19.987Z,21.90
2022-09-04T20:29:10.553Z,21.80
2022-09-04T20:32:08.829Z,21.70
2022-09-04T20:34:55.336Z,21.70
2022-09-04T20:37:30.400Z,21.70
2022-09-04T20:40:11.725Z,21.70
2022-09-04T20:43:01.801Z,21.70
2022-09-04T20:48:45.658Z,21.60
2022-09-04T20:52:53.682Z,21.60
2022-09-04T20:53:07.405Z,21.60
2022-09-04T20:55:09.867Z,22.10
2022-09-04T21:03:08.713Z,22.30
2022-09-04T21:03:20.358Z,22.30
2022-09-04T21:04:23.749Z,22.40
2022-09-04T21:07:54.541Z,22.40
2022-09-04T21:10:34.428Z,22.40
2022-09-04T21:13:14.025Z,22.40
2022-09-04T21:15:47.090Z,22.50
2022-09-04T21:18:36.534Z,22.50
2022-09-04T21:21:24.737Z,22.50
2022-09-04T21:24:16.108Z,22.50
2022-09-04T21:26:58.859Z,22.60
2022-09-04T21:29:40.786Z,22.70
2022-09-04T21:32:14.925Z,22.70
2022-09-04T21:34:56.338Z,22.80
2022-09-04T21:37:50.035Z,22.80
2022-09-04T21:40:54.369Z,22.90
2022-09-04T21:43:52.355Z,22.90
2022-09-04T21:46:43.053Z,22.90
2022-09-04T21:49:28.425Z,22.90
2022-09-04T21:52:09.720Z,23.00
2022-09-04T21:57:05.502Z,23.00
2022-09-04T22:02:35.218Z,23.00
2022-09-04T22:02:44.438Z,23.00
2022-09-04T22:04:05.293Z,23.00
2022-09-04T22:08:02.420Z,22.80
2022-09-04T22:13:32.944Z,22.60
2022-09-04T22:13:50.299Z,22.50
2022-09-04T22:16:45.125Z,22.50
2022-09-04T22:19:17.032Z,22.40
2022-09-04T22:22:03.655Z,22.40
2022-09-04T22:24:57.509Z,22.40
2022-09-04T22:28:08.294Z,22.40
2022-09-04T22:31:08.805Z,22.30
2022-09-04T22:34:15.986Z,22.30
2022-09-04T22:37:21.409Z,22.30
2022-09-04T22:40:16.071Z,22.30
2022-09-04T22:42:59.681Z,22.30
2022-09-04T22:45:55.141Z,22.20
2022-09-04T22:48:30.221Z,22.20
2022-09-04T22:51:17.484Z,22.20
2022-09-04T22:54:04.606Z,22.20
2022-09-04T22:56:51.267Z,22.20
2022-09-04T22:59:36.385Z,22.20
2022-09-04T23:05:44.705Z,22.20
2022-09-04T23:12:59.954Z,22.20
2022-09-04T23:13:51.732Z,22.20
2022-09-04T23:14:46.071Z,22.20
2022-09-04T23:17:52.922Z,22.20
2022-09-04T23:26:35.671Z,22.20
2022-09-04T23:26:47.563Z,22.10
2022-09-04T23:27:34.003Z,22.10
2022-09-04T23:30:53.150Z,22.10
2022-09-04T23:33:42.010Z,22.10
2022-09-04T23:36:43.920Z,22.10
2022-09-04T23:39:53.046Z,22.10
2022-09-04T23:42:25.796Z,22.10
2022-09-04T23:45:13.462Z,22.10
2022-09-04T23:48:01.069Z,22.10
2022-09-04T23:51:01.369Z,22.10
2022-09-04T23:53:46.200Z,22.10
2022-09-04T23:56:25.692Z,22.10
2022-09-04T23:59:21.169Z,22.00
